Terminal Aerodrome Forecast
Issued by NWS

Home | Current Version | Previous Version | Text Only | Print | Product List | Glossary On
Versions: 1 2 3 4 5 6 7 8 9 10 11 12 13 14 15 16 17 18
979
FTUS42 KILM 290205 AAA
TAFCRE
TAF AMD
KCRE 290205Z 2902/2924 25012KT P6SM VCTS SCT050CB BKN100
     FM290215 24009KT P6SM SCT050 BKN100
     FM291300 26010KT P6SM SCT250
     FM291900 23009KT P6SM SCT150=

USA.gov is the U.S. government's official web portal to all federal, state and local government web resources and services.